sensor_id;sensor_type;location;lat;lon;timestamp;P1;durP1;ratioP1;P2;durP2;ratioP2
57535;SDS011;43361;49.790;8.960;2022-08-04T00:02:46;2.38;;;1.50;;
57535;SDS011;43361;49.790;8.960;2022-08-04T00:12:51;2.05;;;1.35;;
57535;SDS011;43361;49.790;8.960;2022-08-04T00:22:55;1.98;;;1.40;;
57535;SDS011;43361;49.790;8.960;2022-08-04T00:32:56;1.92;;;1.40;;
57535;SDS011;43361;49.790;8.960;2022-08-04T00:43:02;2.38;;;1.55;;
57535;SDS011;43361;49.790;8.960;2022-08-04T00:53:06;1.60;;;1.30;;
57535;SDS011;43361;49.790;8.960;2022-08-04T01:03:11;1.98;;;1.60;;
57535;SDS011;43361;49.790;8.960;2022-08-04T01:13:25;1.67;;;1.42;;
57535;SDS011;43361;49.790;8.960;2022-08-04T01:33:50;2.95;;;1.35;;
57535;SDS011;43361;49.790;8.960;2022-08-04T01:43:51;2.05;;;1.40;;
57535;SDS011;43361;49.790;8.960;2022-08-04T01:53:55;3.13;;;1.25;;
57535;SDS011;43361;49.790;8.960;2022-08-04T02:03:55;1.63;;;1.13;;
57535;SDS011;43361;49.790;8.960;2022-08-04T02:14:00;2.55;;;1.15;;
57535;SDS011;43361;49.790;8.960;2022-08-04T02:24:04;1.83;;;1.40;;
57535;SDS011;43361;49.790;8.960;2022-08-04T02:34:08;1.70;;;1.35;;
57535;SDS011;43361;49.790;8.960;2022-08-04T02:44:09;1.77;;;1.27;;
57535;SDS011;43361;49.790;8.960;2022-08-04T02:54:11;2.25;;;1.35;;
57535;SDS011;43361;49.790;8.960;2022-08-04T03:04:26;1.83;;;1.17;;
57535;SDS011;43361;49.790;8.960;2022-08-04T03:35:08;1.38;;;0.98;;
57535;SDS011;43361;49.790;8.960;2022-08-04T03:55:40;1.50;;;1.15;;
57535;SDS011;43361;49.790;8.960;2022-08-04T04:16:09;1.98;;;1.45;;
57535;SDS011;43361;49.790;8.960;2022-08-04T04:26:19;1.55;;;1.10;;
57535;SDS011;43361;49.790;8.960;2022-08-04T04:36:28;1.92;;;1.00;;
57535;SDS011;43361;49.790;8.960;2022-08-04T04:46:35;2.00;;;1.17;;
57535;SDS011;43361;49.790;8.960;2022-08-04T04:56:40;2.95;;;1.60;;
57535;SDS011;43361;49.790;8.960;2022-08-04T05:06:45;1.33;;;1.10;;
57535;SDS011;43361;49.790;8.960;2022-08-04T05:16:53;1.08;;;0.98;;
57535;SDS011;43361;49.790;8.960;2022-08-04T05:26:59;1.83;;;1.20;;
57535;SDS011;43361;49.790;8.960;2022-08-04T05:37:04;1.20;;;1.10;;
57535;SDS011;43361;49.790;8.960;2022-08-04T05:47:07;1.10;;;0.95;;
57535;SDS011;43361;49.790;8.960;2022-08-04T05:57:12;1.58;;;1.25;;
57535;SDS011;43361;49.790;8.960;2022-08-04T06:07:13;1.40;;;1.00;;
57535;SDS011;43361;49.790;8.960;2022-08-04T06:17:18;3.75;;;1.42;;
57535;SDS011;43361;49.790;8.960;2022-08-04T06:27:20;5.65;;;2.15;;
57535;SDS011;43361;49.790;8.960;2022-08-04T06:37:23;11.60;;;3.40;;
57535;SDS011;43361;49.790;8.960;2022-08-04T06:47:24;10.02;;;2.95;;
57535;SDS011;43361;49.790;8.960;2022-08-04T06:57:27;9.68;;;3.42;;
57535;SDS011;43361;49.790;8.960;2022-08-04T07:07:28;9.15;;;3.25;;
57535;SDS011;43361;49.790;8.960;2022-08-04T07:17:30;9.40;;;3.63;;
57535;SDS011;43361;49.790;8.960;2022-08-04T07:27:31;8.02;;;3.55;;
57535;SDS011;43361;49.790;8.960;2022-08-04T07:37:33;8.02;;;3.92;;
57535;SDS011;43361;49.790;8.960;2022-08-04T07:47:33;9.80;;;3.72;;
57535;SDS011;43361;49.790;8.960;2022-08-04T07:57:35;9.03;;;3.73;;
57535;SDS011;43361;49.790;8.960;2022-08-04T08:07:36;10.30;;;3.83;;
57535;SDS011;43361;49.790;8.960;2022-08-04T08:17:38;8.32;;;3.30;;
57535;SDS011;43361;49.790;8.960;2022-08-04T08:27:39;8.20;;;3.42;;
57535;SDS011;43361;49.790;8.960;2022-08-04T08:37:42;7.90;;;3.83;;
57535;SDS011;43361;49.790;8.960;2022-08-04T08:47:49;7.60;;;3.50;;
57535;SDS011;43361;49.790;8.960;2022-08-04T09:18:33;9.45;;;3.17;;
57535;SDS011;43361;49.790;8.960;2022-08-04T09:28:37;7.95;;;2.58;;
57535;SDS011;43361;49.790;8.960;2022-08-04T09:38:45;3.63;;;1.75;;
57535;SDS011;43361;49.790;8.960;2022-08-04T09:48:50;5.32;;;1.77;;
57535;SDS011;43361;49.790;8.960;2022-08-04T09:58:53;6.68;;;2.20;;
57535;SDS011;43361;49.790;8.960;2022-08-04T10:08:59;5.60;;;2.05;;
57535;SDS011;43361;49.790;8.960;2022-08-04T10:19:04;9.65;;;2.40;;
57535;SDS011;43361;49.790;8.960;2022-08-04T10:29:08;12.23;;;2.90;;
57535;SDS011;43361;49.790;8.960;2022-08-04T10:39:13;8.68;;;2.80;;
57535;SDS011;43361;49.790;8.960;2022-08-04T10:49:15;11.13;;;2.55;;
57535;SDS011;43361;49.790;8.960;2022-08-04T10:59:23;20.70;;;3.10;;
57535;SDS011;43361;49.790;8.960;2022-08-04T11:09:25;23.95;;;3.47;;
57535;SDS011;43361;49.790;8.960;2022-08-04T11:19:30;21.38;;;3.15;;
57535;SDS011;43361;49.790;8.960;2022-08-04T11:29:34;24.38;;;2.83;;
57535;SDS011;43361;49.790;8.960;2022-08-04T11:39:41;18.25;;;3.63;;
57535;SDS011;43361;49.790;8.960;2022-08-04T11:49:42;21.73;;;3.15;;
57535;SDS011;43361;49.790;8.960;2022-08-04T11:59:45;9.45;;;2.75;;
57535;SDS011;43361;49.790;8.960;2022-08-04T12:09:51;18.40;;;2.55;;
57535;SDS011;43361;49.790;8.960;2022-08-04T12:19:57;14.52;;;3.00;;
57535;SDS011;43361;49.790;8.960;2022-08-04T12:30:00;17.88;;;2.85;;
57535;SDS011;43361;49.790;8.960;2022-08-04T12:40:05;12.50;;;3.10;;
57535;SDS011;43361;49.790;8.960;2022-08-04T12:50:07;12.90;;;2.90;;
57535;SDS011;43361;49.790;8.960;2022-08-04T13:00:12;14.57;;;2.85;;
57535;SDS011;43361;49.790;8.960;2022-08-04T13:10:21;10.38;;;2.75;;
57535;SDS011;43361;49.790;8.960;2022-08-04T13:20:24;13.93;;;2.88;;
57535;SDS011;43361;49.790;8.960;2022-08-04T13:30:26;9.07;;;3.20;;
57535;SDS011;43361;49.790;8.960;2022-08-04T13:40:28;5.75;;;2.50;;
57535;SDS011;43361;49.790;8.960;2022-08-04T13:50:29;9.13;;;2.65;;
57535;SDS011;43361;49.790;8.960;2022-08-04T14:00:39;6.47;;;2.47;;
57535;SDS011;43361;49.790;8.960;2022-08-04T14:10:40;7.07;;;2.50;;
57535;SDS011;43361;49.790;8.960;2022-08-04T14:20:45;7.25;;;2.63;;
57535;SDS011;43361;49.790;8.960;2022-08-04T14:31:08;8.10;;;2.67;;
57535;SDS011;43361;49.790;8.960;2022-08-04T14:41:12;8.52;;;2.53;;
57535;SDS011;43361;49.790;8.960;2022-08-04T14:51:13;8.38;;;2.63;;
57535;SDS011;43361;49.790;8.960;2022-08-04T15:01:15;6.20;;;2.10;;
57535;SDS011;43361;49.790;8.960;2022-08-04T15:11:17;10.05;;;2.90;;
57535;SDS011;43361;49.790;8.960;2022-08-04T15:21:19;10.40;;;2.60;;
57535;SDS011;43361;49.790;8.960;2022-08-04T15:31:21;6.32;;;2.10;;
57535;SDS011;43361;49.790;8.960;2022-08-04T15:41:25;5.10;;;1.70;;
57535;SDS011;43361;49.790;8.960;2022-08-04T15:51:29;5.60;;;1.77;;
57535;SDS011;43361;49.790;8.960;2022-08-04T16:01:31;7.38;;;1.85;;
57535;SDS011;43361;49.790;8.960;2022-08-04T16:11:38;4.85;;;1.65;;
57535;SDS011;43361;49.790;8.960;2022-08-04T16:21:47;4.82;;;1.80;;
57535;SDS011;43361;49.790;8.960;2022-08-04T16:52:19;11.27;;;3.70;;
57535;SDS011;43361;49.790;8.960;2022-08-04T17:02:22;10.65;;;3.08;;
57535;SDS011;43361;49.790;8.960;2022-08-04T17:12:27;11.40;;;2.65;;
57535;SDS011;43361;49.790;8.960;2022-08-04T17:22:28;10.65;;;2.75;;
57535;SDS011;43361;49.790;8.960;2022-08-04T17:32:29;10.88;;;2.70;;
57535;SDS011;43361;49.790;8.960;2022-08-04T17:42:31;8.55;;;2.30;;
57535;SDS011;43361;49.790;8.960;2022-08-04T17:52:33;11.73;;;3.38;;
57535;SDS011;43361;49.790;8.960;2022-08-04T18:02:35;10.80;;;3.55;;
57535;SDS011;43361;49.790;8.960;2022-08-04T18:12:37;10.63;;;2.90;;
57535;SDS011;43361;49.790;8.960;2022-08-04T18:22:39;7.05;;;2.53;;
57535;SDS011;43361;49.790;8.960;2022-08-04T18:32:44;8.57;;;2.58;;
57535;SDS011;43361;49.790;8.960;2022-08-04T18:42:45;8.98;;;2.38;;
57535;SDS011;43361;49.790;8.960;2022-08-04T18:52:47;6.38;;;2.10;;
57535;SDS011;43361;49.790;8.960;2022-08-04T19:02:47;11.07;;;2.53;;
57535;SDS011;43361;49.790;8.960;2022-08-04T19:12:49;7.00;;;2.53;;
57535;SDS011;43361;49.790;8.960;2022-08-04T19:22:49;4.53;;;1.92;;
57535;SDS011;43361;49.790;8.960;2022-08-04T19:32:51;5.75;;;2.35;;
57535;SDS011;43361;49.790;8.960;2022-08-04T19:42:52;7.38;;;2.08;;
57535;SDS011;43361;49.790;8.960;2022-08-04T19:52:54;5.93;;;1.95;;
57535;SDS011;43361;49.790;8.960;2022-08-04T20:02:54;4.20;;;1.83;;
57535;SDS011;43361;49.790;8.960;2022-08-04T20:12:56;5.20;;;2.10;;
57535;SDS011;43361;49.790;8.960;2022-08-04T20:22:57;4.93;;;1.83;;
57535;SDS011;43361;49.790;8.960;2022-08-04T20:32:58;6.65;;;2.25;;
57535;SDS011;43361;49.790;8.960;2022-08-04T20:43:00;4.65;;;1.90;;
57535;SDS011;43361;49.790;8.960;2022-08-04T20:53:02;6.50;;;1.63;;
57535;SDS011;43361;49.790;8.960;2022-08-04T21:03:04;3.97;;;1.75;;
57535;SDS011;43361;49.790;8.960;2022-08-04T21:13:06;5.90;;;1.70;;
57535;SDS011;43361;49.790;8.960;2022-08-04T21:23:06;5.78;;;1.55;;
57535;SDS011;43361;49.790;8.960;2022-08-04T21:33:08;3.95;;;1.77;;
57535;SDS011;43361;49.790;8.960;2022-08-04T21:43:08;4.13;;;1.55;;
57535;SDS011;43361;49.790;8.960;2022-08-04T21:53:11;6.28;;;1.67;;
57535;SDS011;43361;49.790;8.960;2022-08-04T22:03:11;4.65;;;1.70;;
57535;SDS011;43361;49.790;8.960;2022-08-04T22:13:13;2.88;;;1.38;;
57535;SDS011;43361;49.790;8.960;2022-08-04T22:23:13;3.47;;;1.50;;
57535;SDS011;43361;49.790;8.960;2022-08-04T22:33:15;3.22;;;1.60;;
57535;SDS011;43361;49.790;8.960;2022-08-04T22:43:16;2.60;;;1.40;;
57535;SDS011;43361;49.790;8.960;2022-08-04T22:53:17;2.53;;;1.27;;
57535;SDS011;43361;49.790;8.960;2022-08-04T23:03:18;3.03;;;1.52;;
57535;SDS011;43361;49.790;8.960;2022-08-04T23:13:20;4.10;;;1.60;;
57535;SDS011;43361;49.790;8.960;2022-08-04T23:23:20;3.53;;;1.45;;
57535;SDS011;43361;49.790;8.960;2022-08-04T23:33:22;2.00;;;1.13;;
57535;SDS011;43361;49.790;8.960;2022-08-04T23:43:22;2.25;;;1.38;;
57535;SDS011;43361;49.790;8.960;2022-08-04T23:53:24;4.05;;;1.55;;
